createdAt,value
2023-01-29T00:00:04.839Z,15.1
2023-01-29T00:01:06.696Z,15.1
2023-01-29T00:02:08.662Z,15.2
2023-01-29T00:03:10.787Z,15.3
2023-01-29T00:04:12.855Z,15.3
2023-01-29T00:05:28.665Z,15.3
2023-01-29T00:06:30.721Z,15.2
2023-01-29T00:07:32.561Z,15.2
2023-01-29T00:08:34.386Z,15.2
2023-01-29T00:09:36.150Z,15.2
2023-01-29T00:10:37.970Z,15.1
2023-01-29T00:11:39.840Z,15.1
2023-01-29T00:12:41.675Z,15.1
2023-01-29T00:13:43.525Z,15.1
2023-01-29T00:14:45.323Z,15.1
2023-01-29T00:15:47.097Z,15
2023-01-29T00:16:49.099Z,15
2023-01-29T00:17:51.036Z,15
2023-01-29T00:18:52.877Z,15
2023-01-29T00:19:54.845Z,15
2023-01-29T00:20:56.690Z,15
2023-01-29T00:21:58.537Z,15
2023-01-29T00:23:00.484Z,15
2023-01-29T00:24:02.393Z,15
2023-01-29T00:25:04.593Z,15
2023-01-29T00:26:06.306Z,15
2023-01-29T00:27:08.197Z,15
2023-01-29T00:28:10.151Z,15
2023-01-29T00:29:11.990Z,15
2023-01-29T00:30:14.188Z,15
2023-01-29T00:31:17.627Z,15.1
2023-01-29T00:32:20.118Z,15
2023-01-29T00:33:22.462Z,15
2023-01-29T00:34:24.522Z,15.1
2023-01-29T00:35:26.460Z,15.1
2023-01-29T00:36:28.543Z,15
2023-01-29T00:37:30.387Z,15
2023-01-29T00:38:32.135Z,15
2023-01-29T00:39:48.479Z,15
2023-01-29T00:40:50.284Z,15
2023-01-29T00:41:52.125Z,15
2023-01-29T00:42:53.976Z,15
2023-01-29T00:43:55.823Z,15
2023-01-29T00:44:57.665Z,15
2023-01-29T00:45:59.546Z,15
2023-01-29T00:47:01.548Z,15
2023-01-29T00:48:03.411Z,15
2023-01-29T00:49:05.276Z,15
2023-01-29T00:50:07.135Z,15
2023-01-29T00:51:09.079Z,15
2023-01-29T00:52:10.877Z,15
2023-01-29T00:53:12.677Z,15
2023-01-29T00:54:15.015Z,15
2023-01-29T00:55:16.980Z,15
2023-01-29T00:56:18.840Z,15
2023-01-29T00:57:20.587Z,15
2023-01-29T00:58:22.453Z,15
2023-01-29T00:59:24.288Z,15
2023-01-29T01:00:26.149Z,15.1
2023-01-29T01:01:28.118Z,15
2023-01-29T01:02:30.014Z,15.1
2023-01-29T01:03:31.785Z,15
2023-01-29T01:04:35.288Z,15
2023-01-29T01:05:37.387Z,15
2023-01-29T01:06:39.074Z,15
2023-01-29T01:07:41.037Z,15
2023-01-29T01:08:42.893Z,15
2023-01-29T01:09:44.746Z,15
2023-01-29T01:10:46.685Z,15
2023-01-29T01:11:48.525Z,15
2023-01-29T01:12:50.387Z,15
2023-01-29T01:13:52.330Z,15
2023-01-29T01:14:54.217Z,15
2023-01-29T01:15:56.293Z,15
2023-01-29T01:16:58.329Z,15
2023-01-29T01:18:00.167Z,15
2023-01-29T01:19:01.989Z,15
2023-01-29T01:20:03.845Z,15
2023-01-29T01:21:05.803Z,15
2023-01-29T01:22:07.651Z,15
2023-01-29T01:23:09.523Z,15
2023-01-29T01:24:11.487Z,15
2023-01-29T01:25:13.931Z,15
2023-01-29T01:26:15.755Z,15
2023-01-29T01:27:17.614Z,14.9
2023-01-29T01:28:19.468Z,15
2023-01-29T01:29:21.213Z,15
2023-01-29T01:30:23.078Z,15
2023-01-29T01:31:25.239Z,15
2023-01-29T01:32:27.498Z,15
2023-01-29T01:33:29.291Z,15
2023-01-29T01:34:30.981Z,15
2023-01-29T01:35:32.834Z,15
2023-01-29T01:36:34.640Z,15
2023-01-29T01:37:36.626Z,15
2023-01-29T01:38:38.495Z,15
2023-01-29T01:39:40.332Z,15
2023-01-29T01:40:42.279Z,15
2023-01-29T01:41:44.127Z,15
2023-01-29T01:42:45.997Z,15
2023-01-29T01:43:47.766Z,15
2023-01-29T01:44:49.575Z,15
2023-01-29T01:45:51.572Z,15
2023-01-29T01:46:53.786Z,15
2023-01-29T01:47:56.271Z,15
2023-01-29T01:48:58.104Z,15
2023-01-29T01:49:59.843Z,15
2023-01-29T01:51:01.702Z,15
2023-01-29T01:52:03.643Z,15
2023-01-29T01:53:05.402Z,15.1
2023-01-29T01:54:07.346Z,15.1
2023-01-29T01:55:09.099Z,15.1
2023-01-29T01:56:10.949Z,15.1
2023-01-29T01:57:12.900Z,15.2
2023-01-29T01:58:14.645Z,15.2
2023-01-29T01:59:16.444Z,15.2
2023-01-29T02:00:18.808Z,15.2
2023-01-29T02:01:20.762Z,15.2
2023-01-29T02:02:22.850Z,15.2
2023-01-29T02:03:24.949Z,15.2
2023-01-29T02:04:26.773Z,15.1
2023-01-29T02:05:28.626Z,15.1
2023-01-29T02:06:30.671Z,15.1
2023-01-29T02:07:32.436Z,15.2
2023-01-29T02:08:34.170Z,15.1
2023-01-29T02:09:36.159Z,15.1
2023-01-29T02:10:37.864Z,15.1
2023-01-29T02:11:39.729Z,15.1
2023-01-29T02:12:41.679Z,15.1
2023-01-29T02:13:43.439Z,15.1
2023-01-29T02:14:45.278Z,15.1
2023-01-29T02:15:47.017Z,15.1
2023-01-29T02:16:48.869Z,15.1
2023-01-29T02:17:50.942Z,15.1
2023-01-29T02:18:53.111Z,15.1
2023-01-29T02:19:54.938Z,15.1
2023-01-29T02:20:56.888Z,15.1
2023-01-29T02:21:58.838Z,15.1
2023-01-29T02:23:03.810Z,15.1
2023-01-29T02:24:06.059Z,15.1
2023-01-29T02:25:08.283Z,15.1
2023-01-29T02:26:10.138Z,15.1
2023-01-29T02:27:12.077Z,15.1
2023-01-29T02:28:13.945Z,15.1
2023-01-29T02:29:15.889Z,15.1
2023-01-29T02:30:18.439Z,15.1
2023-01-29T02:31:21.159Z,15.1
2023-01-29T02:32:23.293Z,15.1
2023-01-29T02:33:25.436Z,15.1
2023-01-29T02:34:27.402Z,15.1
2023-01-29T02:35:29.228Z,15.1
2023-01-29T02:36:31.101Z,15.1
2023-01-29T02:37:32.829Z,15.1
2023-01-29T02:38:34.584Z,15.1
2023-01-29T02:39:36.535Z,15.1
2023-01-29T02:40:38.376Z,15.1
2023-01-29T02:41:40.238Z,15.1
2023-01-29T02:42:42.078Z,15.1
2023-01-29T02:43:43.928Z,15.1
2023-01-29T02:44:45.893Z,15.1
2023-01-29T02:45:47.915Z,15.1
2023-01-29T02:46:49.897Z,15.1
2023-01-29T02:47:51.612Z,15.1
2023-01-29T02:48:53.394Z,15.1
2023-01-29T02:49:55.337Z,15.1
2023-01-29T02:50:57.289Z,15.1
2023-01-29T02:51:59.151Z,15.1
2023-01-29T02:53:00.998Z,15.1
2023-01-29T02:54:02.859Z,15.1
2023-01-29T02:55:04.711Z,15.1
2023-01-29T02:56:06.537Z,15.1
2023-01-29T02:57:08.393Z,15.1
2023-01-29T02:58:10.237Z,15.1
2023-01-29T02:59:12.086Z,15.1
2023-01-29T03:00:14.624Z,15.1
2023-01-29T03:01:17.808Z,15.1
2023-01-29T03:02:19.823Z,15.1
2023-01-29T03:03:21.840Z,15.1
2023-01-29T03:04:23.720Z,15.2
2023-01-29T03:05:25.582Z,15.2
2023-01-29T03:06:27.401Z,15.1
2023-01-29T03:07:29.249Z,15.1
2023-01-29T03:08:31.205Z,15.1
2023-01-29T03:09:32.952Z,15.1
2023-01-29T03:10:34.709Z,15.2
2023-01-29T03:11:36.645Z,15.2
2023-01-29T03:12:38.493Z,15.2
2023-01-29T03:13:40.263Z,15.2
2023-01-29T03:14:41.990Z,15.2
2023-01-29T03:15:43.821Z,15.2
2023-01-29T03:16:45.896Z,15.1
2023-01-29T03:17:47.723Z,15.2
2023-01-29T03:18:49.504Z,15.1
2023-01-29T03:19:51.236Z,15.2
2023-01-29T03:20:53.232Z,15.2
2023-01-29T03:21:55.085Z,15.2
2023-01-29T03:22:57.002Z,15.2
2023-01-29T03:23:58.849Z,15.2
2023-01-29T03:25:00.802Z,15.2
2023-01-29T03:26:02.517Z,15.1
2023-01-29T03:27:04.259Z,15.1
2023-01-29T03:28:06.055Z,15.1
2023-01-29T03:29:07.895Z,15.2
2023-01-29T03:30:09.710Z,15.1
2023-01-29T03:31:11.634Z,15.2
2023-01-29T03:32:13.887Z,15.1
2023-01-29T03:33:16.007Z,15.2
2023-01-29T03:34:17.853Z,15.2
2023-01-29T03:35:19.607Z,15.2
2023-01-29T03:36:21.489Z,15.2
2023-01-29T03:37:23.423Z,15.2
2023-01-29T03:38:25.252Z,15.2
2023-01-29T03:39:27.213Z,15.1
2023-01-29T03:40:29.055Z,15.1
2023-01-29T03:41:30.803Z,15.2
2023-01-29T03:42:32.658Z,15.2
2023-01-29T03:43:34.618Z,15.2
2023-01-29T03:44:36.463Z,15.2
2023-01-29T03:45:38.452Z,15.2
2023-01-29T03:46:40.873Z,15.3
2023-01-29T03:47:42.732Z,15.3
2023-01-29T03:48:44.576Z,15.3
2023-01-29T03:49:49.095Z,15.3
2023-01-29T03:50:50.904Z,15.4
2023-01-29T03:51:52.655Z,15.3
2023-01-29T03:52:54.638Z,15.3
2023-01-29T03:53:56.499Z,15.4
2023-01-29T03:54:58.360Z,15.3
2023-01-29T03:56:00.191Z,15.3
2023-01-29T03:57:02.043Z,15.3
2023-01-29T03:58:03.987Z,15.3
2023-01-29T03:59:05.847Z,15.3
2023-01-29T04:00:07.697Z,15.3
2023-01-29T04:01:09.604Z,15.3
2023-01-29T04:02:11.497Z,15.3
2023-01-29T04:03:13.348Z,15.3
2023-01-29T04:04:15.370Z,15.3
2023-01-29T04:05:17.386Z,15.2
2023-01-29T04:06:19.312Z,15.3
2023-01-29T04:07:21.251Z,15.3
2023-01-29T04:08:23.213Z,15.3
2023-01-29T04:09:25.066Z,15.3
2023-01-29T04:10:26.930Z,15.3
2023-01-29T04:11:28.770Z,15.3
2023-01-29T04:12:30.716Z,15.3
2023-01-29T04:13:32.658Z,15.3
2023-01-29T04:14:34.520Z,15.3
2023-01-29T04:15:36.379Z,15.2
2023-01-29T04:16:38.400Z,15.3
2023-01-29T04:17:40.472Z,15.2
2023-01-29T04:18:42.330Z,15.2
2023-01-29T04:19:44.177Z,15.3
2023-01-29T04:20:46.135Z,15.3
2023-01-29T04:21:47.971Z,15.3
2023-01-29T04:22:49.729Z,15.3
2023-01-29T04:23:51.575Z,15.2
2023-01-29T04:24:53.427Z,15.3
2023-01-29T04:25:55.382Z,15.2
2023-01-29T04:26:57.191Z,15.2
2023-01-29T04:27:59.053Z,15.3
2023-01-29T04:29:00.950Z,15.3
2023-01-29T04:30:02.803Z,15.3
2023-01-29T04:31:05.055Z,15.3
2023-01-29T04:32:07.604Z,15.3
2023-01-29T04:33:09.257Z,15.2
2023-01-29T04:34:11.101Z,15.2
2023-01-29T04:35:12.948Z,15.2
2023-01-29T04:36:14.795Z,15.2
2023-01-29T04:37:16.653Z,15.2
2023-01-29T04:38:18.492Z,15.2
2023-01-29T04:39:20.343Z,15.2
2023-01-29T04:40:22.205Z,15.2
2023-01-29T04:41:24.156Z,15.2
2023-01-29T04:42:26.104Z,15.2
2023-01-29T04:43:27.850Z,15.3
2023-01-29T04:44:29.705Z,15.2
2023-01-29T04:45:31.516Z,15.2
2023-01-29T04:46:33.409Z,15.2
2023-01-29T04:47:35.620Z,15.2
2023-01-29T04:48:37.721Z,15.2
2023-01-29T04:49:39.561Z,15.2
2023-01-29T04:50:41.417Z,15.2
2023-01-29T04:51:43.327Z,15.2
2023-01-29T04:52:45.212Z,15.2
2023-01-29T04:53:47.060Z,15.2
2023-01-29T04:54:48.923Z,15.2
2023-01-29T04:55:50.766Z,15.2
2023-01-29T04:56:52.726Z,15.2
2023-01-29T04:57:54.565Z,15.2
2023-01-29T04:58:56.533Z,15.2
2023-01-29T04:59:58.638Z,15.2
2023-01-29T05:01:00.499Z,15.3
2023-01-29T05:02:02.676Z,15.2
2023-01-29T05:03:05.074Z,15.2
2023-01-29T05:04:07.046Z,15.2
2023-01-29T05:05:08.850Z,15.2
2023-01-29T05:06:10.697Z,15.2
2023-01-29T05:07:12.855Z,15.2
2023-01-29T05:08:14.824Z,15.2
2023-01-29T05:09:16.670Z,15.2
2023-01-29T05:10:19.357Z,15.2
2023-01-29T05:11:21.888Z,15.2
2023-01-29T05:12:23.754Z,15.2
2023-01-29T05:13:25.589Z,15.2
2023-01-29T05:14:27.441Z,15.2
2023-01-29T05:15:29.299Z,15.2
2023-01-29T05:16:31.141Z,15.2
2023-01-29T05:17:32.990Z,15.2
2023-01-29T05:18:34.946Z,15.2
2023-01-29T05:19:36.802Z,15.3
2023-01-29T05:20:38.653Z,15.3
2023-01-29T05:21:41.416Z,15.4
2023-01-29T05:22:43.205Z,15.3
2023-01-29T05:23:45.019Z,15.3
2023-01-29T05:24:46.969Z,15.4
2023-01-29T05:25:48.813Z,15.4
2023-01-29T05:26:50.671Z,15.4
2023-01-29T05:27:52.533Z,15.4
2023-01-29T05:28:56.422Z,15.4
2023-01-29T05:29:58.367Z,15.4
2023-01-29T05:31:00.534Z,15.4
2023-01-29T05:32:02.683Z,15.4
2023-01-29T05:33:04.539Z,15.4
2023-01-29T05:34:06.627Z,15.4
2023-01-29T05:35:08.433Z,15.4
2023-01-29T05:36:10.273Z,15.3
2023-01-29T05:37:12.135Z,15.4
2023-01-29T05:38:14.019Z,15.4
2023-01-29T05:39:15.934Z,15.3
2023-01-29T05:40:18.585Z,15.4
2023-01-29T05:41:20.971Z,15.4
2023-01-29T05:42:22.833Z,15.3
2023-01-29T05:43:24.677Z,15.3
2023-01-29T05:44:26.501Z,15.3
2023-01-29T05:45:31.142Z,15.3
2023-01-29T05:46:33.180Z,15.3
2023-01-29T05:47:35.140Z,15.3
2023-01-29T05:48:36.987Z,15.3
2023-01-29T05:49:39.165Z,15.3
2023-01-29T05:50:40.981Z,15.3
2023-01-29T05:51:42.854Z,15.3
2023-01-29T05:52:44.697Z,15.3
2023-01-29T05:53:46.556Z,15.3
2023-01-29T05:54:48.300Z,15.3
2023-01-29T05:55:50.147Z,15.3
2023-01-29T05:56:52.002Z,15.3
2023-01-29T05:57:53.856Z,15.3
2023-01-29T05:58:55.798Z,15.3
2023-01-29T05:59:57.622Z,15.3
2023-01-29T06:00:59.411Z,15.3
2023-01-29T06:02:01.501Z,15.3
2023-01-29T06:03:03.578Z,15.3
2023-01-29T06:04:05.665Z,15.3
2023-01-29T06:05:07.519Z,15.3
2023-01-29T06:06:09.259Z,15.3
2023-01-29T06:07:11.208Z,15.3
2023-01-29T06:08:12.932Z,15.3
2023-01-29T06:09:14.611Z,15.3
2023-01-29T06:10:17.128Z,15.3
2023-01-29T06:11:20.354Z,15.3
2023-01-29T06:12:22.261Z,15.3
2023-01-29T06:13:24.231Z,15.3
2023-01-29T06:14:26.207Z,15.3
2023-01-29T06:15:27.928Z,15.3
2023-01-29T06:16:29.966Z,15.3
2023-01-29T06:17:32.066Z,15.2
2023-01-29T06:18:33.930Z,15.3
2023-01-29T06:19:35.785Z,15.2
2023-01-29T06:20:37.639Z,15.2
2023-01-29T06:21:42.144Z,15.3
2023-01-29T06:22:44.080Z,15.3
2023-01-29T06:23:45.918Z,15.2
2023-01-29T06:24:47.858Z,15.2
2023-01-29T06:25:49.846Z,15.2
2023-01-29T06:26:51.680Z,15.3
2023-01-29T06:27:53.555Z,15.2
2023-01-29T06:28:55.282Z,15.2
2023-01-29T06:29:57.132Z,15.3
2023-01-29T06:31:27.351Z,15.3
2023-01-29T06:32:42.080Z,15.2
2023-01-29T06:33:44.054Z,15.2
2023-01-29T06:34:49.828Z,15.2
2023-01-29T06:35:51.761Z,15.2
2023-01-29T06:36:53.604Z,15.1
2023-01-29T06:37:55.413Z,15.2
2023-01-29T06:38:57.199Z,15.2
2023-01-29T06:39:59.155Z,15.2
2023-01-29T06:41:01.082Z,15.2
2023-01-29T06:42:02.970Z,15.2
2023-01-29T06:43:04.804Z,15.2
2023-01-29T06:44:06.651Z,15.2
2023-01-29T06:45:08.523Z,15.2
2023-01-29T06:46:10.362Z,15.2
2023-01-29T06:47:12.212Z,15.2
2023-01-29T06:48:13.957Z,15.2
2023-01-29T06:49:18.464Z,15.3
2023-01-29T06:50:20.183Z,15.2
2023-01-29T06:51:22.161Z,15.2
2023-01-29T06:52:23.919Z,15.3
2023-01-29T06:53:25.761Z,15.2
2023-01-29T06:54:27.613Z,15.2
2023-01-29T06:55:29.568Z,15.3
2023-01-29T06:56:31.523Z,15.3
2023-01-29T06:57:33.364Z,15.3
2023-01-29T06:58:35.211Z,15.3
2023-01-29T06:59:37.081Z,15.3
2023-01-29T07:00:39.024Z,15.3
2023-01-29T07:01:40.988Z,15.4
2023-01-29T07:02:42.938Z,15.4
2023-01-29T07:03:44.771Z,15.4
2023-01-29T07:04:46.621Z,15.4
2023-01-29T07:05:48.486Z,15.4
2023-01-29T07:06:50.432Z,15.5
2023-01-29T07:07:52.278Z,15.5
2023-01-29T07:08:54.030Z,15.5
2023-01-29T07:09:55.847Z,15.5
2023-01-29T07:10:57.834Z,15.4
2023-01-29T07:11:59.576Z,15.4
2023-01-29T07:13:01.430Z,15.4
2023-01-29T07:14:03.389Z,15.4
2023-01-29T07:15:05.218Z,15.4
2023-01-29T07:16:07.039Z,15.4
2023-01-29T07:17:09.124Z,15.4
2023-01-29T07:18:10.989Z,15.4
2023-01-29T07:19:12.854Z,15.4
2023-01-29T07:20:15.859Z,15.4
2023-01-29T07:21:18.546Z,15.4
2023-01-29T07:22:20.425Z,15.4
2023-01-29T07:23:22.386Z,15.4
2023-01-29T07:24:24.281Z,15.4
2023-01-29T07:25:26.397Z,15.4
2023-01-29T07:26:28.212Z,15.4
2023-01-29T07:27:30.089Z,15.4
2023-01-29T07:28:32.149Z,15.3
2023-01-29T07:29:34.004Z,15.3
2023-01-29T07:30:35.838Z,15.4
2023-01-29T07:31:38.062Z,15.4
2023-01-29T07:32:40.257Z,15.3
2023-01-29T07:33:42.219Z,15.3
2023-01-29T07:34:44.068Z,15.3
2023-01-29T07:35:45.912Z,15.4
2023-01-29T07:36:47.766Z,15.4
2023-01-29T07:37:49.609Z,15.4
2023-01-29T07:38:51.646Z,15.3
2023-01-29T07:39:53.521Z,15.4
2023-01-29T07:40:55.578Z,15.4
2023-01-29T07:41:57.530Z,15.4
2023-01-29T07:42:59.372Z,15.4
2023-01-29T07:44:01.321Z,15.3
2023-01-29T07:45:03.183Z,15.3
2023-01-29T07:46:05.269Z,15.3
2023-01-29T07:47:07.521Z,15.4
2023-01-29T07:48:09.335Z,15.4
2023-01-29T07:49:11.145Z,15.4
2023-01-29T07:50:12.842Z,15.4
2023-01-29T07:51:14.590Z,15.4
2023-01-29T07:52:16.855Z,15.4
2023-01-29T07:53:18.558Z,15.4
2023-01-29T07:54:20.410Z,15.3
2023-01-29T07:55:22.293Z,15.3
2023-01-29T07:56:24.222Z,15.3
2023-01-29T07:57:26.197Z,15.3
2023-01-29T07:58:27.947Z,15.3
2023-01-29T07:59:29.866Z,15.3
2023-01-29T08:00:31.747Z,15.3
2023-01-29T08:01:33.693Z,15.3
2023-01-29T08:02:35.599Z,15.3
2023-01-29T08:03:37.465Z,15.3
2023-01-29T08:04:39.242Z,15.3
2023-01-29T08:05:41.101Z,15.4
2023-01-29T08:06:43.051Z,15.4
2023-01-29T08:08:04.442Z,15.1
2023-01-29T08:09:09.565Z,15.2
2023-01-29T08:10:11.420Z,15.6
2023-01-29T08:11:13.385Z,15.5
2023-01-29T08:12:15.232Z,15.5
2023-01-29T08:13:17.085Z,15.6
2023-01-29T08:14:19.046Z,15.6
2023-01-29T08:15:20.895Z,15.8
2023-01-29T08:16:22.765Z,15.8
2023-01-29T08:17:24.698Z,15.8
2023-01-29T08:18:26.549Z,15.8
2023-01-29T08:19:28.389Z,15.8
2023-01-29T08:20:30.207Z,15.8
2023-01-29T08:21:32.103Z,15.7
2023-01-29T08:22:33.896Z,15.7
2023-01-29T08:23:35.907Z,15.7
2023-01-29T08:25:00.231Z,15.7
2023-01-29T08:26:10.311Z,15.6
2023-01-29T08:27:12.144Z,15.6
2023-01-29T08:28:14.019Z,15.5
2023-01-29T08:29:15.867Z,15.5
2023-01-29T08:30:18.759Z,15.5
2023-01-29T08:31:20.631Z,15.5
2023-01-29T08:32:22.639Z,15.5
2023-01-29T08:33:39.500Z,15.5
2023-01-29T08:34:41.406Z,15.5
2023-01-29T08:35:43.250Z,15.5
2023-01-29T08:36:45.098Z,15.5
2023-01-29T08:37:46.941Z,15.5
2023-01-29T08:38:48.688Z,15.5
2023-01-29T08:39:50.560Z,15.5
2023-01-29T08:40:52.285Z,15.5
2023-01-29T08:41:54.155Z,15.5
2023-01-29T08:42:55.985Z,15.5
2023-01-29T08:43:57.806Z,15.5
2023-01-29T08:44:59.709Z,15.5
2023-01-29T08:46:01.781Z,15.5
2023-01-29T08:47:03.812Z,15.5
2023-01-29T08:48:05.652Z,15.5
2023-01-29T08:49:07.602Z,15.5
2023-01-29T08:50:09.553Z,15.5
2023-01-29T08:51:11.416Z,15.5
2023-01-29T08:52:13.130Z,15.5
2023-01-29T08:53:15.005Z,15.5
2023-01-29T08:54:16.747Z,15.5
2023-01-29T08:55:19.386Z,15.5
2023-01-29T08:56:21.376Z,15.5
2023-01-29T08:57:23.217Z,15.5
2023-01-29T08:58:25.072Z,15.5
2023-01-29T08:59:26.925Z,15.5
2023-01-29T09:00:31.456Z,15.4
2023-01-29T09:01:33.378Z,15.4
2023-01-29T09:02:35.667Z,15.4
2023-01-29T09:03:37.611Z,15.4
2023-01-29T09:04:42.093Z,15.4
2023-01-29T09:05:44.071Z,15.4
2023-01-29T09:06:45.921Z,15.4
2023-01-29T09:07:47.767Z,15.4
2023-01-29T09:08:54.863Z,15.4
2023-01-29T09:09:56.794Z,15.4
2023-01-29T09:10:58.740Z,15.4
2023-01-29T09:12:00.600Z,15.4
2023-01-29T09:13:02.453Z,15.4
2023-01-29T09:14:04.192Z,15.4
2023-01-29T09:15:05.949Z,15.3
2023-01-29T09:16:07.887Z,15.4
2023-01-29T09:17:09.736Z,15.4
2023-01-29T09:18:11.593Z,15.4
2023-01-29T09:19:13.340Z,15.4
2023-01-29T09:20:15.290Z,15.4
2023-01-29T09:21:17.249Z,15.4
2023-01-29T09:22:19.065Z,15.4
2023-01-29T09:23:21.059Z,15.4
2023-01-29T09:24:22.992Z,15.4
2023-01-29T09:25:24.848Z,15.4
2023-01-29T09:26:26.951Z,15.3
2023-01-29T09:27:28.880Z,15.4
2023-01-29T09:28:30.736Z,15.3
2023-01-29T09:29:36.059Z,15.3
2023-01-29T09:30:38.395Z,15.3
2023-01-29T09:31:40.601Z,15.4
2023-01-29T09:32:54.725Z,15.4
2023-01-29T09:33:57.027Z,15.4
2023-01-29T09:34:59.041Z,15.3
2023-01-29T09:36:01.609Z,15.4
2023-01-29T09:37:03.432Z,15.3
2023-01-29T09:38:05.285Z,15.4
2023-01-29T09:39:07.125Z,15.4
2023-01-29T09:40:08.864Z,15.4
2023-01-29T09:41:10.829Z,15.4
2023-01-29T09:42:12.565Z,15.4
2023-01-29T09:43:14.400Z,15.3
2023-01-29T09:44:16.175Z,15.3
2023-01-29T09:45:18.812Z,15.3
2023-01-29T09:46:21.395Z,15.3
2023-01-29T09:47:23.564Z,15.3
2023-01-29T09:48:25.407Z,15.3
2023-01-29T09:49:27.266Z,15.3
2023-01-29T09:50:29.007Z,15.3
2023-01-29T09:51:30.764Z,15.3
2023-01-29T09:52:32.733Z,15.3
2023-01-29T09:53:34.561Z,15.3
2023-01-29T09:54:36.510Z,15.3
2023-01-29T09:55:38.364Z,15.4
2023-01-29T09:56:40.215Z,15.3
2023-01-29T09:57:42.167Z,15.3
2023-01-29T09:58:44.028Z,15.3
2023-01-29T09:59:45.766Z,15.3
2023-01-29T10:00:47.517Z,15.3
2023-01-29T10:01:49.522Z,15.3
2023-01-29T10:02:54.382Z,15.3
2023-01-29T10:03:56.235Z,15.3
2023-01-29T10:04:58.052Z,15.3
2023-01-29T10:05:59.935Z,15.3
2023-01-29T10:07:01.766Z,15.3
2023-01-29T10:08:03.638Z,15.3
2023-01-29T10:09:05.383Z,15.3
2023-01-29T10:10:07.229Z,15.2
2023-01-29T10:11:09.183Z,15.3
2023-01-29T10:12:11.028Z,15.2
2023-01-29T10:13:13.082Z,15.3
2023-01-29T10:14:14.839Z,15.3
2023-01-29T10:15:17.437Z,15.3
2023-01-29T10:16:20.347Z,15.3
2023-01-29T10:17:22.373Z,15.3
2023-01-29T10:18:24.295Z,15.4
2023-01-29T10:19:26.133Z,15.4
2023-01-29T10:20:28.011Z,15.5
2023-01-29T10:21:29.832Z,15.5
2023-01-29T10:22:31.576Z,15.5
2023-01-29T10:23:35.018Z,15.5
2023-01-29T10:24:37.035Z,15.5
2023-01-29T10:25:38.772Z,15.4
2023-01-29T10:26:40.809Z,15.4
2023-01-29T10:27:42.994Z,15.4
2023-01-29T10:28:44.701Z,15.4
2023-01-29T10:29:46.587Z,15.4
2023-01-29T10:30:48.722Z,15.4
2023-01-29T10:31:51.054Z,15.4
2023-01-29T10:32:53.252Z,15.3
2023-01-29T10:34:03.161Z,15.3
2023-01-29T10:35:05.041Z,15.3
2023-01-29T10:36:06.899Z,15.3
2023-01-29T10:37:08.952Z,15.3
2023-01-29T10:38:10.808Z,15.3
2023-01-29T10:39:12.519Z,15.3
2023-01-29T10:40:14.505Z,15.3
2023-01-29T10:41:16.359Z,15.3
2023-01-29T10:42:18.208Z,15.3
2023-01-29T10:43:20.121Z,15.3
2023-01-29T10:44:22.007Z,15.3
2023-01-29T10:45:23.854Z,15.3
2023-01-29T10:46:25.635Z,15.3
2023-01-29T10:47:30.667Z,15.3
2023-01-29T10:48:35.861Z,15.3
2023-01-29T10:49:37.701Z,15.3
2023-01-29T10:50:39.567Z,15.2
2023-01-29T10:51:41.405Z,15.3
2023-01-29T10:52:43.248Z,15.2
2023-01-29T10:53:45.199Z,15.3
2023-01-29T10:54:47.067Z,15.2
2023-01-29T10:55:49.003Z,15.2
2023-01-29T10:56:50.853Z,15.2
2023-01-29T10:57:52.714Z,15.2
2023-01-29T10:58:54.474Z,15.2
2023-01-29T10:59:56.303Z,15.2
2023-01-29T11:00:58.162Z,15.2
2023-01-29T11:02:00.215Z,15.2
2023-01-29T11:03:02.692Z,15.2
2023-01-29T11:04:05.761Z,15.2
2023-01-29T11:05:10.267Z,15.2
2023-01-29T11:06:12.212Z,15.2
2023-01-29T11:07:14.168Z,15.2
2023-01-29T11:08:16.141Z,15.2
2023-01-29T11:09:17.977Z,15.2
2023-01-29T11:10:20.066Z,15.2
2023-01-29T11:11:21.988Z,15.2
2023-01-29T11:12:24.251Z,15.2
2023-01-29T11:13:28.551Z,15.2
2023-01-29T11:14:30.505Z,15.2
2023-01-29T11:15:32.356Z,15.2
2023-01-29T11:16:34.202Z,15.3
2023-01-29T11:17:36.148Z,15.2
2023-01-29T11:18:37.905Z,15.2
2023-01-29T11:19:39.852Z,15.1
2023-01-29T11:20:41.624Z,15.1
2023-01-29T11:21:43.454Z,15.1
2023-01-29T11:22:45.401Z,15.1
2023-01-29T11:23:47.258Z,15.2
2023-01-29T11:24:49.004Z,15.2
2023-01-29T11:25:50.746Z,15.2
2023-01-29T11:26:52.593Z,15.2
2023-01-29T11:27:54.574Z,15.1
2023-01-29T11:28:56.393Z,15.2
2023-01-29T11:29:58.210Z,15.2
2023-01-29T11:31:00.203Z,15.2
2023-01-29T11:32:02.165Z,15.1
2023-01-29T11:33:04.100Z,15.1
2023-01-29T11:34:05.954Z,15.1
2023-01-29T11:35:07.815Z,15.1
2023-01-29T11:36:09.682Z,15.2
2023-01-29T11:37:11.509Z,15.1
2023-01-29T11:38:13.376Z,15.1
2023-01-29T11:39:15.517Z,15.1
2023-01-29T11:40:18.251Z,15.1
2023-01-29T11:41:20.863Z,15
2023-01-29T11:42:22.710Z,15.1
2023-01-29T11:43:24.657Z,15.1
2023-01-29T11:44:26.515Z,15.1
2023-01-29T11:45:28.234Z,15.1
2023-01-29T11:46:30.235Z,15.1
2023-01-29T11:47:32.360Z,15.1
2023-01-29T11:48:34.215Z,15
2023-01-29T11:49:36.177Z,15
2023-01-29T11:50:38.110Z,15
2023-01-29T11:51:39.869Z,15.1
2023-01-29T11:52:41.712Z,15.1
2023-01-29T11:53:43.579Z,15.1
2023-01-29T11:54:45.327Z,15.1
2023-01-29T11:55:51.257Z,15.1
2023-01-29T11:56:53.112Z,15.1
2023-01-29T11:57:54.857Z,15
2023-01-29T11:58:56.820Z,15
2023-01-29T11:59:58.758Z,15.1
2023-01-29T12:01:00.603Z,15.1
2023-01-29T12:02:02.480Z,15.1
2023-01-29T12:03:04.408Z,15.1
2023-01-29T12:04:06.430Z,15.1
2023-01-29T12:05:08.525Z,15.1
2023-01-29T12:06:10.557Z,15.2
2023-01-29T12:07:12.544Z,15.1
2023-01-29T12:08:14.487Z,15.1
2023-01-29T12:09:17.261Z,15.1
2023-01-29T12:10:19.685Z,15.1
2023-01-29T12:11:21.571Z,15.1
2023-01-29T12:12:23.622Z,15.1
2023-01-29T12:13:25.487Z,15.2
2023-01-29T12:14:27.425Z,15.2
2023-01-29T12:15:29.169Z,15.1
2023-01-29T12:16:31.066Z,15.2
2023-01-29T12:17:33.082Z,15.2
2023-01-29T12:18:35.148Z,15.2
2023-01-29T12:19:37.081Z,15.1
2023-01-29T12:20:38.929Z,15.2
2023-01-29T12:21:40.792Z,15.2
2023-01-29T12:22:42.643Z,15.2
2023-01-29T12:23:44.450Z,15.2
2023-01-29T12:24:46.453Z,15.2
2023-01-29T12:25:48.114Z,15.2
2023-01-29T12:26:49.939Z,15.2
2023-01-29T12:27:51.689Z,15.2
2023-01-29T12:28:53.420Z,15.2
2023-01-29T12:29:55.394Z,15.2
2023-01-29T12:30:57.429Z,15.2
2023-01-29T12:31:59.386Z,15.2
2023-01-29T12:33:01.233Z,15.2
2023-01-29T12:34:03.101Z,15.2
2023-01-29T12:35:04.937Z,15.2
2023-01-29T12:36:06.798Z,15.2
2023-01-29T12:37:12.423Z,15.2
2023-01-29T12:38:14.255Z,15.2
2023-01-29T12:39:16.138Z,15.2
2023-01-29T12:40:18.760Z,15.2
2023-01-29T12:41:21.861Z,15.2
2023-01-29T12:42:23.836Z,15.2
2023-01-29T12:43:25.572Z,15.2
2023-01-29T12:44:27.331Z,15.2
2023-01-29T12:45:29.188Z,15.2
2023-01-29T12:46:31.134Z,15.2
2023-01-29T12:47:32.979Z,15.2
2023-01-29T12:48:34.852Z,15.2
2023-01-29T12:49:36.591Z,15.2
2023-01-29T12:50:38.344Z,15.2
2023-01-29T12:51:40.243Z,15.2
2023-01-29T12:52:42.020Z,15.2
2023-01-29T12:53:43.867Z,15.2
2023-01-29T12:54:45.818Z,15.3
2023-01-29T12:55:50.533Z,15.2
2023-01-29T12:56:52.493Z,15.2
2023-01-29T12:57:54.438Z,15.2
2023-01-29T12:58:56.289Z,15.2
2023-01-29T12:59:58.083Z,15.2
2023-01-29T13:01:00.001Z,15.2
2023-01-29T13:02:02.064Z,15.2
2023-01-29T13:03:04.106Z,15.2
2023-01-29T13:04:06.061Z,15.2
2023-01-29T13:05:07.916Z,15.2
2023-01-29T13:06:09.628Z,15.2
2023-01-29T13:07:12.508Z,15.2
2023-01-29T13:08:14.282Z,15.2
2023-01-29T13:09:16.035Z,15.3
2023-01-29T13:10:18.514Z,15.2
2023-01-29T13:11:21.365Z,15.3
2023-01-29T13:12:26.188Z,15.3
2023-01-29T13:13:28.035Z,15.3
2023-01-29T13:14:29.777Z,15.3
2023-01-29T13:15:31.532Z,15.3
2023-01-29T13:16:33.486Z,15.3
2023-01-29T13:17:35.554Z,15.3
2023-01-29T13:18:37.490Z,15.3
2023-01-29T13:19:39.340Z,15.3
2023-01-29T13:20:41.099Z,15.3
2023-01-29T13:21:42.915Z,15.3
2023-01-29T13:22:44.778Z,15.2
2023-01-29T13:23:46.739Z,15.3
2023-01-29T13:25:05.326Z,15.3
2023-01-29T13:26:08.127Z,15.2
2023-01-29T13:27:10.106Z,15.3
2023-01-29T13:28:12.028Z,15.2
2023-01-29T13:29:14.011Z,15.2
2023-01-29T13:30:16.460Z,15.2
2023-01-29T13:31:19.154Z,15.3
2023-01-29T13:32:21.089Z,15.3
2023-01-29T13:33:22.947Z,15.3
2023-01-29T13:34:24.901Z,15.3
2023-01-29T13:35:26.665Z,15.3
2023-01-29T13:36:28.500Z,15.3
2023-01-29T13:37:30.340Z,15.3
2023-01-29T13:38:32.092Z,15.3
2023-01-29T13:39:34.077Z,15.3
2023-01-29T13:40:38.667Z,15.3
2023-01-29T13:41:40.503Z,15.3
2023-01-29T13:42:42.260Z,15.3
2023-01-29T13:43:44.146Z,15.4
2023-01-29T13:44:45.978Z,15.4
2023-01-29T13:45:47.871Z,15.3
2023-01-29T13:46:49.985Z,15.3
2023-01-29T13:47:51.822Z,15.3
2023-01-29T13:48:53.764Z,15.3
2023-01-29T13:49:55.622Z,15.3
2023-01-29T13:50:57.582Z,15.3
2023-01-29T13:51:59.311Z,15.3
2023-01-29T13:53:01.267Z,15.3
2023-01-29T13:54:03.118Z,15.3